sensor_id;sensor_type;location;lat;lon;timestamp;P1;durP1;ratioP1;P2;durP2;ratioP2
63818;SDS011;49970;54.976;73.248;2023-04-19T00:01:23;39.88;;;19.63;;
63818;SDS011;49970;54.976;73.248;2023-04-19T00:03:49;37.10;;;20.45;;
63818;SDS011;49970;54.976;73.248;2023-04-19T00:06:15;32.42;;;19.95;;
63818;SDS011;49970;54.976;73.248;2023-04-19T00:08:42;39.50;;;20.20;;
63818;SDS011;49970;54.976;73.248;2023-04-19T00:11:08;38.28;;;19.30;;
63818;SDS011;49970;54.976;73.248;2023-04-19T00:13:35;30.83;;;20.48;;
63818;SDS011;49970;54.976;73.248;2023-04-19T00:16:01;40.70;;;20.17;;
63818;SDS011;49970;54.976;73.248;2023-04-19T00:18:37;37.38;;;18.30;;
63818;SDS011;49970;54.976;73.248;2023-04-19T00:21:14;29.67;;;19.08;;
63818;SDS011;49970;54.976;73.248;2023-04-19T00:23:40;32.80;;;18.88;;
63818;SDS011;49970;54.976;73.248;2023-04-19T00:26:06;33.35;;;19.05;;
63818;SDS011;49970;54.976;73.248;2023-04-19T00:28:32;29.25;;;18.17;;
63818;SDS011;49970;54.976;73.248;2023-04-19T00:30:59;28.85;;;17.20;;
63818;SDS011;49970;54.976;73.248;2023-04-19T00:33:25;29.55;;;17.58;;
63818;SDS011;49970;54.976;73.248;2023-04-19T00:35:52;28.67;;;16.92;;
63818;SDS011;49970;54.976;73.248;2023-04-19T00:38:18;33.78;;;18.35;;
63818;SDS011;49970;54.976;73.248;2023-04-19T00:40:45;32.20;;;17.80;;
63818;SDS011;49970;54.976;73.248;2023-04-19T00:43:22;26.67;;;17.45;;
63818;SDS011;49970;54.976;73.248;2023-04-19T00:45:48;30.33;;;18.60;;
63818;SDS011;49970;54.976;73.248;2023-04-19T00:48:14;24.52;;;16.73;;
63818;SDS011;49970;54.976;73.248;2023-04-19T00:50:46;30.63;;;17.50;;
63818;SDS011;49970;54.976;73.248;2023-04-19T00:53:12;28.45;;;16.88;;
63818;SDS011;49970;54.976;73.248;2023-04-19T00:55:44;28.88;;;16.25;;
63818;SDS011;49970;54.976;73.248;2023-04-19T00:58:12;28.00;;;16.40;;
63818;SDS011;49970;54.976;73.248;2023-04-19T01:00:43;30.08;;;16.83;;
63818;SDS011;49970;54.976;73.248;2023-04-19T01:03:11;41.83;;;17.35;;
63818;SDS011;49970;54.976;73.248;2023-04-19T01:05:40;38.10;;;16.73;;
63818;SDS011;49970;54.976;73.248;2023-04-19T01:08:06;39.92;;;15.45;;
63818;SDS011;49970;54.976;73.248;2023-04-19T01:10:33;36.03;;;15.93;;
63818;SDS011;49970;54.976;73.248;2023-04-19T01:12:59;34.75;;;13.00;;
63818;SDS011;49970;54.976;73.248;2023-04-19T01:15:25;24.35;;;13.40;;
63818;SDS011;49970;54.976;73.248;2023-04-19T01:17:51;32.30;;;13.07;;
63818;SDS011;49970;54.976;73.248;2023-04-19T01:20:18;21.05;;;12.82;;
63818;SDS011;49970;54.976;73.248;2023-04-19T01:22:44;24.10;;;12.35;;
63818;SDS011;49970;54.976;73.248;2023-04-19T01:25:11;37.35;;;12.43;;
63818;SDS011;49970;54.976;73.248;2023-04-19T01:27:37;21.85;;;11.77;;
63818;SDS011;49970;54.976;73.248;2023-04-19T01:30:03;38.45;;;13.00;;
63818;SDS011;49970;54.976;73.248;2023-04-19T01:32:35;23.98;;;13.15;;
63818;SDS011;49970;54.976;73.248;2023-04-19T01:35:02;31.88;;;12.40;;
63818;SDS011;49970;54.976;73.248;2023-04-19T01:37:29;23.27;;;12.07;;
63818;SDS011;49970;54.976;73.248;2023-04-19T01:39:55;21.67;;;11.95;;
63818;SDS011;49970;54.976;73.248;2023-04-19T01:42:21;29.38;;;10.52;;
63818;SDS011;49970;54.976;73.248;2023-04-19T01:44:47;27.35;;;11.55;;
63818;SDS011;49970;54.976;73.248;2023-04-19T01:47:14;23.23;;;10.45;;
63818;SDS011;49970;54.976;73.248;2023-04-19T01:49:40;38.30;;;10.45;;
63818;SDS011;49970;54.976;73.248;2023-04-19T01:52:07;21.70;;;10.75;;
63818;SDS011;49970;54.976;73.248;2023-04-19T01:54:33;20.42;;;9.60;;
63818;SDS011;49970;54.976;73.248;2023-04-19T01:56:59;21.42;;;10.48;;
63818;SDS011;49970;54.976;73.248;2023-04-19T01:59:26;20.52;;;10.45;;
63818;SDS011;49970;54.976;73.248;2023-04-19T02:02:27;22.35;;;9.52;;
63818;SDS011;49970;54.976;73.248;2023-04-19T02:04:53;21.17;;;10.02;;
63818;SDS011;49970;54.976;73.248;2023-04-19T02:07:19;18.20;;;8.75;;
63818;SDS011;49970;54.976;73.248;2023-04-19T02:09:46;27.90;;;8.73;;
63818;SDS011;49970;54.976;73.248;2023-04-19T02:12:12;17.65;;;9.90;;
63818;SDS011;49970;54.976;73.248;2023-04-19T02:14:44;16.15;;;9.80;;
63818;SDS011;49970;54.976;73.248;2023-04-19T02:17:15;25.95;;;11.60;;
63818;SDS011;49970;54.976;73.248;2023-04-19T02:21:07;17.08;;;11.23;;
63818;SDS011;49970;54.976;73.248;2023-04-19T02:24:58;18.02;;;9.90;;
63818;SDS011;49970;54.976;73.248;2023-04-19T02:28:52;12.95;;;9.52;;
63818;SDS011;49970;54.976;73.248;2023-04-19T02:33:07;15.57;;;8.27;;
63818;SDS011;49970;54.976;73.248;2023-04-19T02:35:50;16.88;;;7.32;;
63818;SDS011;49970;54.976;73.248;2023-04-19T02:38:16;18.50;;;7.07;;
63818;SDS011;49970;54.976;73.248;2023-04-19T02:40:42;30.40;;;8.70;;
63818;SDS011;49970;54.976;73.248;2023-04-19T02:43:09;24.38;;;7.95;;
63818;SDS011;49970;54.976;73.248;2023-04-19T02:45:35;27.10;;;7.90;;
63818;SDS011;49970;54.976;73.248;2023-04-19T02:48:01;32.20;;;8.35;;
63818;SDS011;49970;54.976;73.248;2023-04-19T02:50:28;29.30;;;7.30;;
63818;SDS011;49970;54.976;73.248;2023-04-19T02:53:03;23.90;;;7.10;;
63818;SDS011;49970;54.976;73.248;2023-04-19T02:55:30;38.55;;;8.70;;
63818;SDS011;49970;54.976;73.248;2023-04-19T02:58:05;22.98;;;7.18;;
63818;SDS011;49970;54.976;73.248;2023-04-19T03:00:36;26.25;;;6.13;;
63818;SDS011;49970;54.976;73.248;2023-04-19T03:03:07;29.85;;;9.10;;
63818;SDS011;49970;54.976;73.248;2023-04-19T03:05:35;23.92;;;7.68;;
63818;SDS011;49970;54.976;73.248;2023-04-19T03:08:01;27.33;;;8.27;;
63818;SDS011;49970;54.976;73.248;2023-04-19T03:10:27;40.15;;;15.75;;
63818;SDS011;49970;54.976;73.248;2023-04-19T03:12:53;16.55;;;5.88;;
63818;SDS011;49970;54.976;73.248;2023-04-19T03:15:20;11.30;;;4.82;;
63818;SDS011;49970;54.976;73.248;2023-04-19T03:17:46;11.77;;;4.63;;
63818;SDS011;49970;54.976;73.248;2023-04-19T03:20:13;22.40;;;4.75;;
63818;SDS011;49970;54.976;73.248;2023-04-19T03:22:41;14.38;;;4.43;;
63818;SDS011;49970;54.976;73.248;2023-04-19T03:25:08;12.27;;;5.38;;
63818;SDS011;49970;54.976;73.248;2023-04-19T03:27:38;6.47;;;4.25;;
63818;SDS011;49970;54.976;73.248;2023-04-19T03:31:02;9.83;;;5.10;;
63818;SDS011;49970;54.976;73.248;2023-04-19T03:34:53;20.10;;;6.20;;
63818;SDS011;49970;54.976;73.248;2023-04-19T03:38:44;26.27;;;7.28;;
63818;SDS011;49970;54.976;73.248;2023-04-19T03:42:41;35.70;;;6.45;;
63818;SDS011;49970;54.976;73.248;2023-04-19T03:50:46;31.20;;;8.02;;
63818;SDS011;49970;54.976;73.248;2023-04-19T03:54:39;38.08;;;10.38;;
63818;SDS011;49970;54.976;73.248;2023-04-19T03:58:30;19.75;;;7.50;;
63818;SDS011;49970;54.976;73.248;2023-04-19T04:02:45;27.58;;;8.38;;
63818;SDS011;49970;54.976;73.248;2023-04-19T04:06:56;25.23;;;7.95;;
63818;SDS011;49970;54.976;73.248;2023-04-19T04:10:47;31.20;;;8.05;;
63818;SDS011;49970;54.976;73.248;2023-04-19T04:14:36;31.45;;;7.57;;
63818;SDS011;49970;54.976;73.248;2023-04-19T04:17:04;33.42;;;9.32;;
63818;SDS011;49970;54.976;73.248;2023-04-19T04:19:30;21.25;;;9.68;;
63818;SDS011;49970;54.976;73.248;2023-04-19T04:21:58;18.90;;;7.88;;
63818;SDS011;49970;54.976;73.248;2023-04-19T04:24:25;19.75;;;7.60;;
63818;SDS011;49970;54.976;73.248;2023-04-19T04:27:07;24.33;;;7.00;;
63818;SDS011;49970;54.976;73.248;2023-04-19T04:29:38;18.80;;;7.00;;
63818;SDS011;49970;54.976;73.248;2023-04-19T04:32:06;19.60;;;8.23;;
63818;SDS011;49970;54.976;73.248;2023-04-19T04:34:38;24.45;;;7.50;;
63818;SDS011;49970;54.976;73.248;2023-04-19T04:37:09;25.40;;;7.93;;
63818;SDS011;49970;54.976;73.248;2023-04-19T04:39:37;20.45;;;7.70;;
63818;SDS011;49970;54.976;73.248;2023-04-19T04:42:05;17.10;;;7.22;;
63818;SDS011;49970;54.976;73.248;2023-04-19T04:44:46;15.82;;;7.85;;
63818;SDS011;49970;54.976;73.248;2023-04-19T04:47:23;27.65;;;8.38;;
63818;SDS011;49970;54.976;73.248;2023-04-19T04:49:53;26.98;;;7.78;;
63818;SDS011;49970;54.976;73.248;2023-04-19T04:52:24;15.43;;;7.85;;
63818;SDS011;49970;54.976;73.248;2023-04-19T04:54:59;28.92;;;11.00;;
63818;SDS011;49970;54.976;73.248;2023-04-19T04:57:31;26.00;;;8.07;;
63818;SDS011;49970;54.976;73.248;2023-04-19T04:59:58;22.02;;;8.27;;
63818;SDS011;49970;54.976;73.248;2023-04-19T05:02:30;34.40;;;8.80;;
63818;SDS011;49970;54.976;73.248;2023-04-19T05:04:56;25.85;;;7.95;;
63818;SDS011;49970;54.976;73.248;2023-04-19T05:07:32;22.52;;;8.82;;
63818;SDS011;49970;54.976;73.248;2023-04-19T05:10:01;21.48;;;7.85;;
63818;SDS011;49970;54.976;73.248;2023-04-19T05:12:33;23.65;;;8.35;;
63818;SDS011;49970;54.976;73.248;2023-04-19T05:15:06;21.73;;;9.05;;
63818;SDS011;49970;54.976;73.248;2023-04-19T05:17:33;31.98;;;11.13;;
63818;SDS011;49970;54.976;73.248;2023-04-19T05:20:00;16.38;;;7.45;;
63818;SDS011;49970;54.976;73.248;2023-04-19T05:22:26;18.25;;;7.10;;
63818;SDS011;49970;54.976;73.248;2023-04-19T05:24:53;10.93;;;7.07;;
63818;SDS011;49970;54.976;73.248;2023-04-19T05:27:20;22.17;;;7.63;;
63818;SDS011;49970;54.976;73.248;2023-04-19T05:29:47;29.17;;;8.73;;
63818;SDS011;49970;54.976;73.248;2023-04-19T05:32:26;22.65;;;10.25;;
63818;SDS011;49970;54.976;73.248;2023-04-19T05:36:41;15.10;;;7.53;;
63818;SDS011;49970;54.976;73.248;2023-04-19T05:40:33;14.77;;;8.05;;
63818;SDS011;49970;54.976;73.248;2023-04-19T05:44:24;15.20;;;7.32;;
63818;SDS011;49970;54.976;73.248;2023-04-19T05:48:13;24.88;;;5.93;;
63818;SDS011;49970;54.976;73.248;2023-04-19T05:52:29;15.32;;;6.95;;
63818;SDS011;49970;54.976;73.248;2023-04-19T05:55:09;18.02;;;7.10;;
63818;SDS011;49970;54.976;73.248;2023-04-19T05:57:43;13.88;;;6.65;;
63818;SDS011;49970;54.976;73.248;2023-04-19T06:00:25;18.85;;;7.45;;
63818;SDS011;49970;54.976;73.248;2023-04-19T06:03:15;12.73;;;7.30;;
63818;SDS011;49970;54.976;73.248;2023-04-19T06:05:45;7.85;;;5.47;;
63818;SDS011;49970;54.976;73.248;2023-04-19T06:08:25;28.60;;;6.28;;
63818;SDS011;49970;54.976;73.248;2023-04-19T06:10:58;16.17;;;6.97;;
63818;SDS011;49970;54.976;73.248;2023-04-19T06:13:27;11.15;;;5.78;;
63818;SDS011;49970;54.976;73.248;2023-04-19T06:16:08;9.98;;;5.93;;
63818;SDS011;49970;54.976;73.248;2023-04-19T06:18:40;13.82;;;5.47;;
63818;SDS011;49970;54.976;73.248;2023-04-19T06:21:11;9.10;;;6.40;;
63818;SDS011;49970;54.976;73.248;2023-04-19T06:23:45;8.68;;;6.28;;
63818;SDS011;49970;54.976;73.248;2023-04-19T06:27:36;9.02;;;5.93;;
63818;SDS011;49970;54.976;73.248;2023-04-19T06:35:46;6.95;;;5.68;;
63818;SDS011;49970;54.976;73.248;2023-04-19T06:39:38;7.72;;;5.53;;
63818;SDS011;49970;54.976;73.248;2023-04-19T06:43:30;11.15;;;7.57;;
63818;SDS011;49970;54.976;73.248;2023-04-19T06:47:21;14.98;;;5.85;;
63818;SDS011;49970;54.976;73.248;2023-04-19T06:51:14;15.95;;;6.07;;
63818;SDS011;49970;54.976;73.248;2023-04-19T06:55:06;7.22;;;4.85;;
63818;SDS011;49970;54.976;73.248;2023-04-19T06:58:58;10.18;;;5.25;;
63818;SDS011;49970;54.976;73.248;2023-04-19T07:07:41;7.25;;;5.45;;
63818;SDS011;49970;54.976;73.248;2023-04-19T07:11:33;9.13;;;4.72;;
63818;SDS011;49970;54.976;73.248;2023-04-19T07:19:19;5.68;;;4.43;;
63818;SDS011;49970;54.976;73.248;2023-04-19T07:23:10;8.20;;;4.15;;
63818;SDS011;49970;54.976;73.248;2023-04-19T07:30:58;9.25;;;4.70;;
63818;SDS011;49970;54.976;73.248;2023-04-19T07:34:49;16.00;;;4.53;;
63818;SDS011;49970;54.976;73.248;2023-04-19T07:38:40;9.52;;;5.55;;
63818;SDS011;49970;54.976;73.248;2023-04-19T07:41:06;4.03;;;3.58;;
63818;SDS011;49970;54.976;73.248;2023-04-19T07:43:33;10.68;;;3.00;;
63818;SDS011;49970;54.976;73.248;2023-04-19T07:46:00;5.80;;;3.47;;
63818;SDS011;49970;54.976;73.248;2023-04-19T07:48:27;4.05;;;3.13;;
63818;SDS011;49970;54.976;73.248;2023-04-19T07:50:54;8.30;;;4.05;;
63818;SDS011;49970;54.976;73.248;2023-04-19T07:53:25;9.95;;;3.97;;
63818;SDS011;49970;54.976;73.248;2023-04-19T07:55:52;15.98;;;4.30;;
63818;SDS011;49970;54.976;73.248;2023-04-19T07:58:18;10.55;;;4.28;;
63818;SDS011;49970;54.976;73.248;2023-04-19T08:00:44;7.82;;;3.83;;
63818;SDS011;49970;54.976;73.248;2023-04-19T08:03:11;6.60;;;4.18;;
63818;SDS011;49970;54.976;73.248;2023-04-19T08:05:47;10.82;;;4.15;;
63818;SDS011;49970;54.976;73.248;2023-04-19T08:08:13;11.93;;;6.30;;
63818;SDS011;49970;54.976;73.248;2023-04-19T08:10:44;15.70;;;4.20;;
63818;SDS011;49970;54.976;73.248;2023-04-19T08:13:10;11.10;;;2.97;;
63818;SDS011;49970;54.976;73.248;2023-04-19T08:15:36;4.70;;;3.40;;
63818;SDS011;49970;54.976;73.248;2023-04-19T08:18:03;4.20;;;3.58;;
63818;SDS011;49970;54.976;73.248;2023-04-19T08:20:30;5.72;;;3.58;;
63818;SDS011;49970;54.976;73.248;2023-04-19T08:22:57;6.28;;;3.15;;
63818;SDS011;49970;54.976;73.248;2023-04-19T08:25:24;4.60;;;3.13;;
63818;SDS011;49970;54.976;73.248;2023-04-19T08:28:03;7.50;;;3.13;;
63818;SDS011;49970;54.976;73.248;2023-04-19T08:30:29;17.20;;;3.40;;
63818;SDS011;49970;54.976;73.248;2023-04-19T08:33:00;7.03;;;3.10;;
63818;SDS011;49970;54.976;73.248;2023-04-19T08:35:26;20.17;;;3.17;;
63818;SDS011;49970;54.976;73.248;2023-04-19T08:37:52;3.13;;;2.50;;
63818;SDS011;49970;54.976;73.248;2023-04-19T08:40:23;7.13;;;3.30;;
63818;SDS011;49970;54.976;73.248;2023-04-19T08:42:55;8.30;;;4.28;;
63818;SDS011;49970;54.976;73.248;2023-04-19T08:45:21;10.95;;;4.15;;
63818;SDS011;49970;54.976;73.248;2023-04-19T08:47:52;8.80;;;3.63;;
63818;SDS011;49970;54.976;73.248;2023-04-19T08:50:20;4.28;;;2.88;;
63818;SDS011;49970;54.976;73.248;2023-04-19T08:52:46;6.13;;;3.15;;
63818;SDS011;49970;54.976;73.248;2023-04-19T08:55:14;8.73;;;2.47;;
63818;SDS011;49970;54.976;73.248;2023-04-19T08:57:40;4.20;;;2.35;;
63818;SDS011;49970;54.976;73.248;2023-04-19T09:00:07;3.95;;;2.38;;
63818;SDS011;49970;54.976;73.248;2023-04-19T09:02:45;5.85;;;3.13;;
63818;SDS011;49970;54.976;73.248;2023-04-19T09:05:18;28.55;;;3.30;;
63818;SDS011;49970;54.976;73.248;2023-04-19T09:07:44;4.43;;;2.55;;
63818;SDS011;49970;54.976;73.248;2023-04-19T09:10:15;9.90;;;2.40;;
63818;SDS011;49970;54.976;73.248;2023-04-19T09:12:58;4.63;;;2.70;;
63818;SDS011;49970;54.976;73.248;2023-04-19T09:15:39;5.82;;;2.50;;
63818;SDS011;49970;54.976;73.248;2023-04-19T09:18:09;10.73;;;2.20;;
63818;SDS011;49970;54.976;73.248;2023-04-19T09:20:46;2.97;;;2.53;;
63818;SDS011;49970;54.976;73.248;2023-04-19T09:23:14;8.82;;;1.90;;
63818;SDS011;49970;54.976;73.248;2023-04-19T09:26:00;9.38;;;2.22;;
63818;SDS011;49970;54.976;73.248;2023-04-19T09:28:27;4.78;;;1.90;;
63818;SDS011;49970;54.976;73.248;2023-04-19T09:30:54;3.20;;;2.25;;
63818;SDS011;49970;54.976;73.248;2023-04-19T09:33:33;13.52;;;2.65;;
63818;SDS011;49970;54.976;73.248;2023-04-19T09:36:03;6.85;;;2.42;;
63818;SDS011;49970;54.976;73.248;2023-04-19T09:38:30;5.53;;;2.33;;
63818;SDS011;49970;54.976;73.248;2023-04-19T09:41:10;2.28;;;1.80;;
63818;SDS011;49970;54.976;73.248;2023-04-19T09:45:00;7.50;;;2.47;;
63818;SDS011;49970;54.976;73.248;2023-04-19T09:48:51;8.68;;;2.13;;
63818;SDS011;49970;54.976;73.248;2023-04-19T09:53:13;7.72;;;2.40;;
63818;SDS011;49970;54.976;73.248;2023-04-19T09:56:46;1.98;;;1.55;;
63818;SDS011;49970;54.976;73.248;2023-04-19T09:59:12;5.80;;;2.20;;
63818;SDS011;49970;54.976;73.248;2023-04-19T10:01:42;4.68;;;2.30;;
63818;SDS011;49970;54.976;73.248;2023-04-19T10:05:54;10.70;;;2.67;;
63818;SDS011;49970;54.976;73.248;2023-04-19T10:09:46;2.65;;;2.17;;
63818;SDS011;49970;54.976;73.248;2023-04-19T10:13:36;4.82;;;2.30;;
63818;SDS011;49970;54.976;73.248;2023-04-19T10:17:26;6.55;;;2.33;;
63818;SDS011;49970;54.976;73.248;2023-04-19T10:21:16;3.22;;;1.90;;
63818;SDS011;49970;54.976;73.248;2023-04-19T10:23:45;5.75;;;2.47;;
63818;SDS011;49970;54.976;73.248;2023-04-19T10:26:12;26.58;;;2.72;;
63818;SDS011;49970;54.976;73.248;2023-04-19T10:28:38;6.25;;;2.53;;
63818;SDS011;49970;54.976;73.248;2023-04-19T10:31:18;4.22;;;2.55;;
63818;SDS011;49970;54.976;73.248;2023-04-19T10:33:55;3.10;;;2.25;;
63818;SDS011;49970;54.976;73.248;2023-04-19T10:36:22;6.50;;;2.10;;
63818;SDS011;49970;54.976;73.248;2023-04-19T10:39:02;2.47;;;2.28;;
63818;SDS011;49970;54.976;73.248;2023-04-19T10:42:07;3.13;;;2.78;;
63818;SDS011;49970;54.976;73.248;2023-04-19T10:44:26;5.88;;;2.00;;
63818;SDS011;49970;54.976;73.248;2023-04-19T10:46:53;5.28;;;2.30;;
63818;SDS011;49970;54.976;73.248;2023-04-19T10:49:19;3.13;;;2.65;;
63818;SDS011;49970;54.976;73.248;2023-04-19T10:51:51;3.35;;;2.95;;
63818;SDS011;49970;54.976;73.248;2023-04-19T10:54:35;4.68;;;3.17;;
63818;SDS011;49970;54.976;73.248;2023-04-19T10:57:09;5.32;;;2.88;;
63818;SDS011;49970;54.976;73.248;2023-04-19T10:59:36;8.10;;;3.08;;
63818;SDS011;49970;54.976;73.248;2023-04-19T11:02:25;6.55;;;2.53;;
63818;SDS011;49970;54.976;73.248;2023-04-19T11:07:21;7.13;;;3.45;;
63818;SDS011;49970;54.976;73.248;2023-04-19T11:09:47;8.88;;;3.50;;
63818;SDS011;49970;54.976;73.248;2023-04-19T11:12:16;7.30;;;4.25;;
63818;SDS011;49970;54.976;73.248;2023-04-19T11:14:44;6.45;;;3.65;;
63818;SDS011;49970;54.976;73.248;2023-04-19T11:17:13;4.45;;;3.20;;
63818;SDS011;49970;54.976;73.248;2023-04-19T11:19:41;5.63;;;3.85;;
63818;SDS011;49970;54.976;73.248;2023-04-19T11:22:14;11.48;;;3.45;;
63818;SDS011;49970;54.976;73.248;2023-04-19T11:24:44;6.28;;;2.83;;
63818;SDS011;49970;54.976;73.248;2023-04-19T11:27:12;5.05;;;3.08;;
63818;SDS011;49970;54.976;73.248;2023-04-19T11:29:38;7.15;;;2.95;;
63818;SDS011;49970;54.976;73.248;2023-04-19T11:32:04;7.72;;;3.42;;
63818;SDS011;49970;54.976;73.248;2023-04-19T11:34:35;4.22;;;3.22;;
63818;SDS011;49970;54.976;73.248;2023-04-19T11:37:04;11.55;;;3.55;;
63818;SDS011;49970;54.976;73.248;2023-04-19T11:39:31;7.75;;;4.10;;
63818;SDS011;49970;54.976;73.248;2023-04-19T11:41:57;4.03;;;3.45;;
63818;SDS011;49970;54.976;73.248;2023-04-19T11:44:24;6.97;;;3.90;;
63818;SDS011;49970;54.976;73.248;2023-04-19T11:46:56;9.60;;;4.07;;
63818;SDS011;49970;54.976;73.248;2023-04-19T11:49:24;32.38;;;4.35;;
63818;SDS011;49970;54.976;73.248;2023-04-19T11:52:00;6.95;;;4.03;;
63818;SDS011;49970;54.976;73.248;2023-04-19T11:54:27;3.65;;;3.30;;
63818;SDS011;49970;54.976;73.248;2023-04-19T11:57:03;13.80;;;4.00;;
63818;SDS011;49970;54.976;73.248;2023-04-19T11:59:31;5.70;;;3.90;;
63818;SDS011;49970;54.976;73.248;2023-04-19T12:02:09;8.23;;;2.85;;
63818;SDS011;49970;54.976;73.248;2023-04-19T12:04:37;10.65;;;3.63;;
63818;SDS011;49970;54.976;73.248;2023-04-19T12:07:04;6.72;;;3.30;;
63818;SDS011;49970;54.976;73.248;2023-04-19T12:09:32;6.50;;;4.75;;
63818;SDS011;49970;54.976;73.248;2023-04-19T12:12:00;10.43;;;5.50;;
63818;SDS011;49970;54.976;73.248;2023-04-19T12:14:26;9.32;;;5.70;;
63818;SDS011;49970;54.976;73.248;2023-04-19T12:19:45;8.27;;;3.22;;
63818;SDS011;49970;54.976;73.248;2023-04-19T12:22:13;7.53;;;3.83;;
63818;SDS011;49970;54.976;73.248;2023-04-19T12:24:45;21.40;;;3.50;;
63818;SDS011;49970;54.976;73.248;2023-04-19T12:27:12;5.57;;;3.35;;
63818;SDS011;49970;54.976;73.248;2023-04-19T12:29:42;9.70;;;3.42;;
63818;SDS011;49970;54.976;73.248;2023-04-19T12:32:09;4.93;;;3.63;;
63818;SDS011;49970;54.976;73.248;2023-04-19T12:34:35;6.18;;;3.70;;
63818;SDS011;49970;54.976;73.248;2023-04-19T12:37:01;5.68;;;3.38;;
63818;SDS011;49970;54.976;73.248;2023-04-19T12:39:35;4.05;;;3.60;;
63818;SDS011;49970;54.976;73.248;2023-04-19T12:42:01;4.07;;;3.67;;
63818;SDS011;49970;54.976;73.248;2023-04-19T12:44:30;6.68;;;3.63;;
63818;SDS011;49970;54.976;73.248;2023-04-19T12:46:56;7.85;;;4.65;;
63818;SDS011;49970;54.976;73.248;2023-04-19T12:49:22;10.80;;;6.45;;
63818;SDS011;49970;54.976;73.248;2023-04-19T12:51:49;13.23;;;4.63;;
63818;SDS011;49970;54.976;73.248;2023-04-19T12:54:15;11.77;;;5.40;;
63818;SDS011;49970;54.976;73.248;2023-04-19T12:56:41;8.73;;;4.43;;
63818;SDS011;49970;54.976;73.248;2023-04-19T12:59:08;5.55;;;3.60;;
63818;SDS011;49970;54.976;73.248;2023-04-19T13:01:34;6.50;;;3.97;;
63818;SDS011;49970;54.976;73.248;2023-04-19T13:04:00;10.50;;;3.75;;
63818;SDS011;49970;54.976;73.248;2023-04-19T13:06:27;8.05;;;3.47;;
63818;SDS011;49970;54.976;73.248;2023-04-19T13:08:53;13.88;;;3.53;;
63818;SDS011;49970;54.976;73.248;2023-04-19T13:11:19;4.93;;;3.67;;
63818;SDS011;49970;54.976;73.248;2023-04-19T13:13:48;5.45;;;3.92;;
63818;SDS011;49970;54.976;73.248;2023-04-19T13:16:15;4.95;;;4.03;;
63818;SDS011;49970;54.976;73.248;2023-04-19T13:18:42;10.05;;;4.75;;
63818;SDS011;49970;54.976;73.248;2023-04-19T13:21:08;6.05;;;3.78;;
63818;SDS011;49970;54.976;73.248;2023-04-19T13:23:38;11.43;;;4.45;;
63818;SDS011;49970;54.976;73.248;2023-04-19T13:27:27;10.32;;;4.45;;
63818;SDS011;49970;54.976;73.248;2023-04-19T13:35:15;13.23;;;7.15;;
63818;SDS011;49970;54.976;73.248;2023-04-19T13:39:05;11.60;;;6.22;;
63818;SDS011;49970;54.976;73.248;2023-04-19T13:42:55;9.82;;;6.70;;
63818;SDS011;49970;54.976;73.248;2023-04-19T13:45:21;14.43;;;6.55;;
63818;SDS011;49970;54.976;73.248;2023-04-19T13:47:47;16.65;;;5.78;;
63818;SDS011;49970;54.976;73.248;2023-04-19T13:50:14;12.60;;;5.88;;
63818;SDS011;49970;54.976;73.248;2023-04-19T13:52:40;11.23;;;5.95;;
63818;SDS011;49970;54.976;73.248;2023-04-19T13:55:06;19.95;;;5.90;;
63818;SDS011;49970;54.976;73.248;2023-04-19T13:57:34;49.22;;;6.80;;
63818;SDS011;49970;54.976;73.248;2023-04-19T14:00:00;7.50;;;5.32;;
63818;SDS011;49970;54.976;73.248;2023-04-19T14:02:26;11.55;;;5.63;;
63818;SDS011;49970;54.976;73.248;2023-04-19T14:04:53;14.93;;;5.60;;
63818;SDS011;49970;54.976;73.248;2023-04-19T14:07:29;13.50;;;5.15;;
63818;SDS011;49970;54.976;73.248;2023-04-19T14:09:57;6.20;;;5.43;;
63818;SDS011;49970;54.976;73.248;2023-04-19T14:12:28;14.23;;;6.40;;
63818;SDS011;49970;54.976;73.248;2023-04-19T14:14:54;10.88;;;5.63;;
63818;SDS011;49970;54.976;73.248;2023-04-19T14:17:20;11.85;;;6.00;;
63818;SDS011;49970;54.976;73.248;2023-04-19T14:19:47;8.32;;;5.68;;
63818;SDS011;49970;54.976;73.248;2023-04-19T14:22:14;36.53;;;6.97;;
63818;SDS011;49970;54.976;73.248;2023-04-19T14:24:41;14.43;;;5.57;;
63818;SDS011;49970;54.976;73.248;2023-04-19T14:27:07;19.20;;;6.05;;
63818;SDS011;49970;54.976;73.248;2023-04-19T14:29:34;12.65;;;6.00;;
63818;SDS011;49970;54.976;73.248;2023-04-19T14:32:00;8.43;;;5.22;;
63818;SDS011;49970;54.976;73.248;2023-04-19T14:34:37;23.45;;;6.43;;
63818;SDS011;49970;54.976;73.248;2023-04-19T14:37:03;32.75;;;7.32;;
63818;SDS011;49970;54.976;73.248;2023-04-19T14:39:29;43.13;;;9.43;;
63818;SDS011;49970;54.976;73.248;2023-04-19T14:41:56;44.28;;;8.93;;
63818;SDS011;49970;54.976;73.248;2023-04-19T14:44:22;50.90;;;8.65;;
63818;SDS011;49970;54.976;73.248;2023-04-19T14:46:53;44.58;;;9.93;;
63818;SDS011;49970;54.976;73.248;2023-04-19T14:50:41;30.48;;;8.57;;
63818;SDS011;49970;54.976;73.248;2023-04-19T14:53:07;31.75;;;9.73;;
63818;SDS011;49970;54.976;73.248;2023-04-19T14:55:35;40.28;;;9.07;;
63818;SDS011;49970;54.976;73.248;2023-04-19T14:58:12;20.58;;;8.70;;
63818;SDS011;49970;54.976;73.248;2023-04-19T15:00:38;30.52;;;10.30;;
63818;SDS011;49970;54.976;73.248;2023-04-19T15:03:05;36.78;;;10.60;;
63818;SDS011;49970;54.976;73.248;2023-04-19T15:05:33;23.77;;;9.13;;
63818;SDS011;49970;54.976;73.248;2023-04-19T15:08:20;22.45;;;9.02;;
63818;SDS011;49970;54.976;73.248;2023-04-19T15:10:46;23.23;;;7.53;;
63818;SDS011;49970;54.976;73.248;2023-04-19T15:13:13;18.38;;;8.02;;
63818;SDS011;49970;54.976;73.248;2023-04-19T15:15:39;30.77;;;8.80;;
63818;SDS011;49970;54.976;73.248;2023-04-19T15:18:05;37.28;;;7.38;;
63818;SDS011;49970;54.976;73.248;2023-04-19T15:20:31;21.63;;;10.15;;
63818;SDS011;49970;54.976;73.248;2023-04-19T15:22:58;27.88;;;10.80;;
63818;SDS011;49970;54.976;73.248;2023-04-19T15:25:24;23.52;;;10.82;;
63818;SDS011;49970;54.976;73.248;2023-04-19T15:27:50;22.58;;;13.40;;
63818;SDS011;49970;54.976;73.248;2023-04-19T15:30:16;57.33;;;20.90;;
63818;SDS011;49970;54.976;73.248;2023-04-19T15:32:43;55.95;;;27.05;;
63818;SDS011;49970;54.976;73.248;2023-04-19T15:35:09;70.82;;;29.63;;
63818;SDS011;49970;54.976;73.248;2023-04-19T15:37:35;50.88;;;24.35;;
63818;SDS011;49970;54.976;73.248;2023-04-19T15:41:26;36.20;;;17.73;;
63818;SDS011;49970;54.976;73.248;2023-04-19T15:45:18;52.78;;;18.40;;
63818;SDS011;49970;54.976;73.248;2023-04-19T15:48:50;49.45;;;18.70;;
63818;SDS011;49970;54.976;73.248;2023-04-19T15:51:18;58.05;;;18.60;;
63818;SDS011;49970;54.976;73.248;2023-04-19T15:53:47;71.22;;;18.45;;
63818;SDS011;49970;54.976;73.248;2023-04-19T15:56:19;54.33;;;17.42;;
63818;SDS011;49970;54.976;73.248;2023-04-19T15:58:49;61.20;;;16.48;;
63818;SDS011;49970;54.976;73.248;2023-04-19T16:01:22;52.45;;;18.35;;
63818;SDS011;49970;54.976;73.248;2023-04-19T16:03:58;44.78;;;16.77;;
63818;SDS011;49970;54.976;73.248;2023-04-19T16:09:02;44.97;;;17.70;;
63818;SDS011;49970;54.976;73.248;2023-04-19T16:14:06;46.03;;;16.42;;
63818;SDS011;49970;54.976;73.248;2023-04-19T16:16:41;38.83;;;16.05;;
63818;SDS011;49970;54.976;73.248;2023-04-19T16:19:14;44.22;;;15.63;;
63818;SDS011;49970;54.976;73.248;2023-04-19T16:21:55;38.47;;;15.57;;
63818;SDS011;49970;54.976;73.248;2023-04-19T16:24:38;98.07;;;15.50;;